Time;durP1;ratioP1;P1;durP2;ratioP2;P2;SDS_P1;SDS_P2;PMS_P1;PMS_P2;Temp;Humidity;BMP_temperature;BMP_pressure;BME280_temperature;BME280_humidity;BME280_pressure;Samples;Min_cycle;Max_cycle;Signal;HPM_P1;HPM_P2
2023/12/25 00:00:23;;;;;;;15.73;3.33;;;11.70;99.90;;;;;;5035729;28;20396;-82
2023/12/25 00:02:48;;;;;;;14.18;2.88;;;11.70;99.90;;;;;;5038951;28;20075;-82
2023/12/25 00:05:14;;;;;;;11.10;2.60;;;11.70;99.90;;;;;;5037107;28;20048;-81
2023/12/25 00:07:40;;;;;;;9.43;2.88;;;11.70;99.90;;;;;;5035734;28;20540;-82
2023/12/25 00:10:06;;;;;;;10.68;3.05;;;11.70;99.90;;;;;;5023665;28;20456;-81
2023/12/25 00:12:32;;;;;;;18.00;2.92;;;11.70;99.90;;;;;;5034429;28;20049;-81
2023/12/25 00:14:57;;;;;;;13.77;2.90;;;11.70;99.90;;;;;;5021125;28;20060;-82
2023/12/25 00:17:23;;;;;;;12.15;2.38;;;11.70;99.90;;;;;;5023603;28;20037;-82
2023/12/25 00:19:49;;;;;;;9.82;3.50;;;11.70;99.90;;;;;;5024868;28;20041;-81
2023/12/25 00:22:14;;;;;;;11.00;2.10;;;11.60;99.90;;;;;;5035076;28;20497;-82
2023/12/25 00:24:40;;;;;;;13.38;2.72;;;11.70;99.90;;;;;;5020412;28;20843;-81
2023/12/25 00:27:06;;;;;;;12.00;2.65;;;11.70;99.90;;;;;;5023266;28;20116;-81
2023/12/25 00:29:32;;;;;;;12.88;2.85;;;11.70;99.90;;;;;;5037283;28;20045;-82
2023/12/25 00:31:58;;;;;;;12.02;2.67;;;11.70;99.90;;;;;;5038184;28;20037;-81
2023/12/25 00:34:23;;;;;;;10.48;2.75;;;11.70;99.90;;;;;;5032266;28;20049;-82
2023/12/25 00:36:49;;;;;;;12.68;3.05;;;11.70;99.90;;;;;;5033384;28;20464;-82
2023/12/25 00:39:15;;;;;;;12.00;2.55;;;11.70;99.90;;;;;;5020421;28;20116;-81
2023/12/25 00:41:41;;;;;;;10.93;3.03;;;11.70;99.90;;;;;;5023322;28;20033;-82
2023/12/25 00:44:07;;;;;;;10.38;2.50;;;11.70;99.90;;;;;;5035141;28;20045;-82
2023/12/25 00:46:33;;;;;;;9.35;2.40;;;11.70;99.90;;;;;;5026416;28;20038;-82
2023/12/25 00:48:59;;;;;;;10.23;2.53;;;11.60;99.90;;;;;;5023595;28;20279;-82
2023/12/25 00:51:25;;;;;;;8.88;2.63;;;11.60;99.90;;;;;;5020780;28;20041;-82
2023/12/25 00:53:50;;;;;;;10.77;2.22;;;11.60;99.90;;;;;;5032585;28;20041;-82
2023/12/25 00:56:19;;;;;;;10.00;2.25;;;11.60;99.90;;;;;;5033825;28;20446;-82
2023/12/25 00:58:44;;;;;;;10.13;2.67;;;11.50;99.90;;;;;;5022783;28;20041;-81
2023/12/25 01:01:10;;;;;;;8.15;2.17;;;11.60;99.90;;;;;;5035742;28;20043;-81
2023/12/25 01:03:36;;;;;;;8.18;1.90;;;11.50;99.90;;;;;;5018807;28;20036;-81
2023/12/25 01:06:03;;;;;;;9.45;2.58;;;11.50;99.90;;;;;;5035224;28;20381;-81
2023/12/25 01:08:29;;;;;;;9.70;2.20;;;11.40;99.90;;;;;;5015161;28;20052;-81
2023/12/25 01:10:54;;;;;;;6.28;1.67;;;11.50;99.90;;;;;;5018645;28;20032;-81
2023/12/25 01:13:23;;;;;;;9.90;2.00;;;11.40;99.90;;;;;;5027713;28;20037;-81
2023/12/25 01:15:49;;;;;;;6.28;1.80;;;11.50;99.90;;;;;;5020759;28;20079;-81
2023/12/25 01:18:15;;;;;;;6.95;1.90;;;11.40;99.90;;;;;;5031525;28;20076;-82
2023/12/25 01:20:40;;;;;;;7.75;1.73;;;11.40;99.90;;;;;;5016994;28;20311;-81
2023/12/25 01:23:06;;;;;;;9.60;1.88;;;11.40;99.90;;;;;;5023175;28;20136;-82
2023/12/25 01:25:32;;;;;;;8.93;1.88;;;11.30;99.90;;;;;;5035485;28;20116;-81
2023/12/25 01:27:58;;;;;;;7.50;1.60;;;11.40;99.90;;;;;;5015710;28;20457;-82
2023/12/25 01:30:23;;;;;;;6.75;1.42;;;11.40;99.90;;;;;;5021603;28;20471;-81
2023/12/25 01:32:49;;;;;;;7.03;1.73;;;11.30;99.90;;;;;;5036891;28;20053;-81
2023/12/25 01:35:15;;;;;;;9.60;1.77;;;11.30;99.90;;;;;;5021643;28;20276;-81
2023/12/25 01:37:41;;;;;;;8.98;2.08;;;11.20;99.90;;;;;;5030369;28;20057;-81
2023/12/25 01:40:07;;;;;;;5.75;1.65;;;11.20;99.90;;;;;;5014911;28;20037;-82
2023/12/25 01:42:33;;;;;;;6.78;1.60;;;11.20;99.90;;;;;;5037198;28;20076;-81
2023/12/25 01:44:59;;;;;;;11.35;2.35;;;11.20;99.90;;;;;;5019569;28;20137;-82
2023/12/25 01:47:24;;;;;;;15.02;2.30;;;11.10;99.90;;;;;;5020367;28;20450;-82
2023/12/25 01:49:50;;;;;;;5.80;1.50;;;11.10;99.90;;;;;;5022264;28;20041;-82
2023/12/25 01:52:17;;;;;;;10.35;2.30;;;11.10;99.90;;;;;;5018114;28;20154;-81
2023/12/25 01:54:43;;;;;;;8.75;2.13;;;11.10;99.90;;;;;;5037605;28;20098;-81
2023/12/25 01:57:09;;;;;;;8.57;1.83;;;11.10;99.90;;;;;;5036158;28;20572;-81
2023/12/25 01:59:35;;;;;;;9.80;2.42;;;11.00;99.90;;;;;;5034664;28;20045;-81
2023/12/25 02:02:01;;;;;;;13.27;2.33;;;11.00;99.90;;;;;;5026642;28;20409;-81
2023/12/25 02:04:27;;;;;;;11.45;1.98;;;11.00;99.90;;;;;;5014640;28;20131;-81
2023/12/25 02:06:54;;;;;;;11.07;2.40;;;11.00;99.90;;;;;;5015874;28;20288;-82
2023/12/25 02:09:20;;;;;;;10.77;2.28;;;10.90;99.90;;;;;;5021209;28;20075;-81
2023/12/25 02:11:45;;;;;;;7.43;1.77;;;10.90;99.90;;;;;;5019644;28;20258;-81
2023/12/25 02:14:13;;;;;;;9.98;2.15;;;11.00;99.90;;;;;;5027813;28;20480;-81
2023/12/25 02:16:40;;;;;;;14.73;2.55;;;10.90;99.90;;;;;;5019295;28;20097;-82
2023/12/25 02:19:12;;;;;;;13.23;2.67;;;10.90;99.90;;;;;;5017964;28;20091;-81
2023/12/25 02:21:41;;;;;;;11.77;2.30;;;10.80;99.90;;;;;;5022016;28;20103;-81
2023/12/25 02:24:09;;;;;;;12.13;2.83;;;10.80;99.90;;;;;;5031215;28;20056;-81
2023/12/25 02:26:34;;;;;;;11.68;2.38;;;10.80;99.90;;;;;;5022028;28;20072;-81
2023/12/25 02:29:00;;;;;;;12.70;2.15;;;10.80;99.90;;;;;;5017116;28;20350;-81
2023/12/25 02:31:25;;;;;;;10.68;2.50;;;10.80;99.90;;;;;;5017690;28;20102;-81
2023/12/25 02:33:51;;;;;;;10.40;2.53;;;10.80;99.90;;;;;;5034394;28;20071;-81
2023/12/25 02:36:17;;;;;;;9.05;2.63;;;10.80;99.90;;;;;;5029605;28;20029;-82
2023/12/25 02:38:42;;;;;;;10.30;2.58;;;10.90;99.90;;;;;;5017133;28;20045;-81
2023/12/25 02:41:08;;;;;;;9.18;2.10;;;11.00;99.90;;;;;;5013037;28;20053;-81
2023/12/25 02:43:34;;;;;;;9.00;2.28;;;11.00;99.90;;;;;;5010014;28;20299;-81
2023/12/25 02:45:59;;;;;;;11.63;2.90;;;11.00;99.90;;;;;;5030799;28;20076;-81
2023/12/25 02:48:25;;;;;;;8.75;2.13;;;11.00;99.90;;;;;;5025163;28;20048;-81
2023/12/25 02:50:51;;;;;;;6.00;1.90;;;11.10;99.90;;;;;;5019322;28;20245;-81
2023/12/25 02:53:17;;;;;;;11.15;2.15;;;11.00;99.90;;;;;;5034760;28;20044;-81
2023/12/25 02:55:43;;;;;;;7.88;1.75;;;11.00;99.90;;;;;;5020612;28;20484;-86
2023/12/25 02:58:08;;;;;;;6.65;1.52;;;11.00;99.90;;;;;;5027601;28;20032;-87
2023/12/25 03:00:34;;;;;;;5.57;2.08;;;11.10;99.90;;;;;;5033557;28;20120;-86
2023/12/25 03:03:00;;;;;;;8.57;2.08;;;11.00;99.90;;;;;;5032737;28;20049;-86
2023/12/25 03:05:26;;;;;;;5.45;1.42;;;11.10;99.90;;;;;;5020076;28;20097;-86
2023/12/25 03:07:54;;;;;;;7.90;1.90;;;11.10;99.90;;;;;;5031762;28;20051;-86
2023/12/25 03:10:20;;;;;;;5.65;1.67;;;11.10;99.90;;;;;;5026304;28;20063;-87
2023/12/25 03:12:46;;;;;;;5.10;1.60;;;11.00;99.90;;;;;;5033631;28;20049;-86
2023/12/25 03:15:11;;;;;;;7.60;1.45;;;11.00;99.90;;;;;;5019195;28;20119;-81
2023/12/25 03:17:37;;;;;;;5.53;1.48;;;11.10;99.90;;;;;;5033046;28;20049;-82
2023/12/25 03:20:03;;;;;;;11.95;1.98;;;11.00;99.90;;;;;;5035009;28;20051;-81
2023/12/25 03:22:29;;;;;;;8.95;1.77;;;11.00;99.90;;;;;;5033446;28;20544;-81
2023/12/25 03:24:54;;;;;;;9.27;1.85;;;11.00;99.90;;;;;;5017440;28;20049;-82
2023/12/25 03:27:20;;;;;;;11.88;1.80;;;11.00;99.90;;;;;;5021144;28;20036;-81
2023/12/25 03:29:46;;;;;;;7.25;1.60;;;11.00;99.90;;;;;;5035388;28;20049;-81
2023/12/25 03:32:14;;;;;;;3.22;1.98;;;10.90;99.90;;;;;;5021225;28;20589;-82
2023/12/25 03:34:47;;;;;;;5.28;1.50;;;10.90;99.90;;;;;;5025533;28;20492;-82
2023/12/25 03:37:13;;;;;;;6.35;1.60;;;10.90;99.90;;;;;;5035628;28;20103;-81
2023/12/25 03:39:39;;;;;;;6.38;1.80;;;10.80;99.90;;;;;;5019207;28;20079;-82
2023/12/25 03:42:05;;;;;;;8.10;1.60;;;10.80;99.90;;;;;;5038134;28;20080;-81
2023/12/25 03:44:31;;;;;;;8.23;1.90;;;10.90;99.90;;;;;;5028774;28;20171;-81
2023/12/25 03:46:56;;;;;;;6.15;1.65;;;10.80;99.90;;;;;;5038158;28;20455;-81
2023/12/25 03:49:22;;;;;;;10.98;2.22;;;10.80;99.90;;;;;;5024620;28;20037;-81
2023/12/25 03:51:48;;;;;;;5.72;1.65;;;10.80;99.90;;;;;;5023919;28;20051;-81
2023/12/25 03:54:13;;;;;;;8.55;1.73;;;10.80;99.90;;;;;;5020644;28;20333;-81
2023/12/25 03:56:39;;;;;;;12.10;2.13;;;10.90;99.90;;;;;;5051740;28;20179;-81
2023/12/25 03:59:05;;;;;;;6.20;2.15;;;10.80;99.90;;;;;;5033166;28;20123;-81
2023/12/25 04:01:31;;;;;;;13.50;1.88;;;10.80;99.90;;;;;;5020494;28;20124;-81
2023/12/25 04:03:56;;;;;;;8.00;1.98;;;10.80;99.90;;;;;;5023998;28;20042;-82
2023/12/25 04:06:24;;;;;;;9.23;1.85;;;10.80;99.90;;;;;;5024510;28;20032;-81
2023/12/25 04:08:52;;;;;;;11.05;2.00;;;10.80;99.90;;;;;;5016761;28;20337;-82
2023/12/25 04:11:22;;;;;;;9.52;1.98;;;10.80;99.90;;;;;;5021150;28;20441;-81
2023/12/25 04:13:53;;;;;;;7.57;2.10;;;10.80;99.90;;;;;;5026922;28;20043;-86
2023/12/25 04:16:26;;;;;;;9.07;2.03;;;10.80;99.90;;;;;;5021701;28;20120;-86
2023/12/25 04:18:53;;;;;;;10.68;2.25;;;10.70;99.90;;;;;;5034158;28;20075;-86
2023/12/25 04:21:22;;;;;;;9.90;2.30;;;10.70;99.90;;;;;;5037327;28;20037;-81
2023/12/25 04:23:48;;;;;;;7.03;1.98;;;10.80;99.90;;;;;;5017557;28;20073;-82
2023/12/25 04:26:14;;;;;;;6.78;1.75;;;10.70;99.90;;;;;;5035964;28;20082;-81
2023/12/25 04:28:40;;;;;;;10.50;2.20;;;10.80;99.90;;;;;;5029805;28;20089;-81
2023/12/25 04:31:05;;;;;;;11.65;2.03;;;10.70;99.90;;;;;;5019252;28;20131;-82
2023/12/25 04:33:31;;;;;;;11.00;1.75;;;10.80;99.90;;;;;;5041596;28;20045;-81
2023/12/25 04:35:56;;;;;;;10.38;1.92;;;10.70;99.90;;;;;;5030582;28;20060;-81
2023/12/25 04:38:22;;;;;;;12.57;2.22;;;10.70;99.90;;;;;;5038981;28;20086;-81
2023/12/25 04:40:50;;;;;;;12.25;2.35;;;10.70;99.90;;;;;;5015435;28;20094;-81
2023/12/25 04:43:16;;;;;;;8.30;2.40;;;10.70;99.90;;;;;;5030499;28;20132;-81
2023/12/25 04:45:42;;;;;;;13.18;2.13;;;10.70;99.90;;;;;;5032162;28;20515;-81
2023/12/25 04:48:07;;;;;;;10.02;2.13;;;10.70;99.90;;;;;;5022662;28;20037;-82
2023/12/25 04:50:33;;;;;;;13.05;2.42;;;10.70;99.90;;;;;;5023659;28;20146;-81
2023/12/25 04:52:59;;;;;;;12.57;2.65;;;10.60;99.90;;;;;;5039653;28;20045;-87
2023/12/25 04:55:28;;;;;;;11.85;2.70;;;10.60;99.90;;;;;;5035150;28;20048;-85
2023/12/25 04:57:53;;;;;;;12.93;2.47;;;10.60;99.90;;;;;;5034345;28;20045;-86
2023/12/25 05:00:20;;;;;;;10.35;2.47;;;10.70;99.90;;;;;;5036755;28;20040;-87
2023/12/25 05:02:46;;;;;;;11.60;2.08;;;10.70;99.90;;;;;;5037372;28;20192;-81
2023/12/25 05:05:12;;;;;;;10.00;2.05;;;10.70;99.90;;;;;;5023159;28;20045;-82
2023/12/25 05:07:37;;;;;;;9.50;2.10;;;10.60;99.90;;;;;;5023823;28;20446;-82
2023/12/25 05:10:03;;;;;;;13.68;2.20;;;10.50;99.90;;;;;;5021464;28;20064;-82
2023/12/25 05:12:29;;;;;;;12.65;2.42;;;10.30;99.90;;;;;;5036845;28;20176;-81
2023/12/25 05:14:55;;;;;;;7.47;2.40;;;10.30;99.90;;;;;;5035906;28;20448;-81
2023/12/25 05:17:21;;;;;;;7.45;2.70;;;10.30;99.90;;;;;;5023068;28;20513;-81
2023/12/25 05:19:47;;;;;;;15.52;3.20;;;10.30;99.90;;;;;;5022887;28;20047;-81
2023/12/25 05:22:13;;;;;;;11.35;2.50;;;10.30;99.90;;;;;;5029330;28;20052;-81
2023/12/25 05:24:39;;;;;;;13.52;2.47;;;10.20;99.90;;;;;;5036211;28;20056;-81
2023/12/25 05:27:05;;;;;;;13.82;2.88;;;10.20;99.90;;;;;;5021503;28;20045;-81
2023/12/25 05:29:30;;;;;;;11.75;2.50;;;10.20;99.90;;;;;;5038748;28;20455;-81
2023/12/25 05:31:57;;;;;;;11.18;3.10;;;10.10;99.90;;;;;;5038155;28;20120;-81
2023/12/25 05:34:23;;;;;;;10.00;2.30;;;10.20;99.90;;;;;;5036374;28;20033;-81
2023/12/25 05:36:48;;;;;;;11.18;2.58;;;10.10;99.90;;;;;;5035832;28;20087;-82
2023/12/25 05:39:14;;;;;;;15.43;2.63;;;10.20;99.90;;;;;;5021315;28;20037;-81
2023/12/25 05:41:41;;;;;;;15.38;2.72;;;10.20;99.90;;;;;;5019885;28;20041;-81
2023/12/25 05:44:07;;;;;;;11.02;2.25;;;10.20;99.90;;;;;;5017714;28;20063;-81
2023/12/25 05:46:32;;;;;;;12.10;2.40;;;10.20;99.90;;;;;;5028634;28;20441;-81
2023/12/25 05:48:58;;;;;;;15.52;3.05;;;10.20;99.90;;;;;;5031689;28;20049;-81
2023/12/25 05:51:24;;;;;;;15.27;2.80;;;10.20;99.90;;;;;;5016189;28;20068;-81
2023/12/25 05:53:49;;;;;;;14.68;3.05;;;10.20;99.90;;;;;;5017926;28;20121;-81
2023/12/25 05:56:15;;;;;;;11.27;2.70;;;10.20;99.90;;;;;;5025186;28;20051;-81
2023/12/25 05:58:41;;;;;;;13.77;2.63;;;10.20;99.90;;;;;;5032340;28;20037;-82
2023/12/25 06:01:08;;;;;;;11.63;2.92;;;10.20;99.90;;;;;;5028824;28;20041;-81
2023/12/25 06:03:35;;;;;;;10.07;2.30;;;10.10;99.90;;;;;;5030829;28;20037;-81
2023/12/25 06:06:01;;;;;;;16.10;2.65;;;10.20;99.90;;;;;;5014879;28;20393;-81
2023/12/25 06:08:26;;;;;;;12.73;2.78;;;10.10;99.90;;;;;;5033839;28;20116;-82
2023/12/25 06:10:52;;;;;;;14.88;3.20;;;10.10;99.90;;;;;;5035091;28;20477;-81
2023/12/25 06:13:18;;;;;;;13.65;2.70;;;10.00;99.90;;;;;;5015174;28;20037;-81
2023/12/25 06:15:43;;;;;;;11.07;2.72;;;10.10;99.90;;;;;;5029336;28;20064;-81
2023/12/25 06:18:09;;;;;;;15.65;2.83;;;10.20;99.90;;;;;;5034582;28;20631;-81
2023/12/25 06:20:35;;;;;;;12.82;2.95;;;10.10;99.90;;;;;;5026840;28;20045;-81
2023/12/25 06:23:01;;;;;;;11.27;2.70;;;10.10;99.90;;;;;;5028818;28;20068;-81
2023/12/25 06:25:26;;;;;;;11.98;2.60;;;10.20;99.90;;;;;;5029070;28;20052;-81
2023/12/25 06:27:52;;;;;;;11.18;2.28;;;10.10;99.90;;;;;;5022656;28;20048;-81
2023/12/25 06:30:18;;;;;;;10.93;3.10;;;10.00;99.90;;;;;;5029813;28;20041;-82
2023/12/25 06:32:43;;;;;;;12.63;2.58;;;10.10;99.90;;;;;;5021562;28;20051;-81
2023/12/25 06:35:09;;;;;;;11.77;2.65;;;10.00;99.90;;;;;;5017959;28;20144;-81
2023/12/25 06:37:35;;;;;;;8.88;3.35;;;9.90;99.90;;;;;;5016973;28;20659;-81
2023/12/25 06:40:05;;;;;;;14.43;2.70;;;9.90;99.90;;;;;;5019830;28;20106;-81
2023/12/25 06:42:32;;;;;;;11.73;2.70;;;9.90;99.90;;;;;;5017538;28;20049;-81
2023/12/25 06:44:58;;;;;;;9.48;2.45;;;10.00;99.90;;;;;;5047342;28;20049;-81
2023/12/25 06:47:23;;;;;;;14.30;2.42;;;10.00;99.90;;;;;;5012756;28;20068;-81
2023/12/25 06:49:49;;;;;;;11.35;2.63;;;9.90;99.90;;;;;;5027758;28;20534;-81
2023/12/25 06:52:16;;;;;;;17.77;2.65;;;9.90;99.90;;;;;;5032448;28;20045;-82
2023/12/25 06:54:41;;;;;;;11.77;2.20;;;9.90;99.90;;;;;;5030689;28;22195;-81
2023/12/25 06:57:07;;;;;;;12.18;2.72;;;9.80;99.90;;;;;;5008686;28;20041;-81
2023/12/25 06:59:33;;;;;;;12.68;2.38;;;9.80;99.90;;;;;;5013626;28;20156;-81
2023/12/25 07:01:58;;;;;;;14.05;2.90;;;9.80;99.90;;;;;;5027047;28;20048;-81
2023/12/25 07:04:24;;;;;;;10.60;2.38;;;9.80;99.90;;;;;;5015303;28;20052;-82
2023/12/25 07:06:50;;;;;;;13.05;2.35;;;9.80;99.90;;;;;;5018962;28;20041;-81
2023/12/25 07:09:16;;;;;;;12.18;2.90;;;9.80;99.90;;;;;;5028409;28;20424;-81
2023/12/25 07:11:42;;;;;;;14.25;2.78;;;9.80;99.90;;;;;;5030195;28;20048;-81
2023/12/25 07:14:08;;;;;;;14.52;2.90;;;9.80;99.90;;;;;;5008975;28;20037;-82
2023/12/25 07:16:34;;;;;;;11.85;2.55;;;9.90;99.90;;;;;;5023644;28;20124;-81
2023/12/25 07:18:59;;;;;;;11.35;2.53;;;9.90;99.90;;;;;;5017275;28;20049;-81
2023/12/25 07:21:25;;;;;;;14.30;2.55;;;9.80;99.90;;;;;;5013530;28;20047;-81
2023/12/25 07:23:52;;;;;;;12.98;2.85;;;9.70;99.90;;;;;;5018175;28;20040;-81
2023/12/25 07:26:19;;;;;;;12.45;2.40;;;9.70;99.90;;;;;;5033570;28;20163;-81
2023/12/25 07:28:45;;;;;;;11.02;2.33;;;9.70;99.90;;;;;;5018404;28;20033;-81
2023/12/25 07:31:11;;;;;;;11.93;2.80;;;9.60;99.90;;;;;;5024223;28;20088;-86
2023/12/25 07:33:37;;;;;;;9.90;2.47;;;9.70;99.90;;;;;;5020171;28;20105;-86
2023/12/25 07:36:04;;;;;;;11.07;2.50;;;9.70;99.90;;;;;;5029233;28;20056;-85
2023/12/25 07:38:30;;;;;;;14.73;3.03;;;9.70;99.90;;;;;;5033868;28;20440;-86
2023/12/25 07:40:57;;;;;;;14.98;2.65;;;9.60;99.90;;;;;;5013329;28;20040;-86
2023/12/25 07:43:24;;;;;;;13.23;2.90;;;9.60;99.90;;;;;;5026496;28;20053;-86
2023/12/25 07:45:50;;;;;;;12.00;2.55;;;9.60;99.90;;;;;;5027633;28;20112;-86
2023/12/25 07:48:16;;;;;;;11.82;2.58;;;9.60;99.90;;;;;;5030872;28;20037;-86
2023/12/25 07:50:42;;;;;;;14.10;4.00;;;9.60;99.90;;;;;;5024711;28;20048;-86
2023/12/25 07:53:08;;;;;;;9.95;2.58;;;9.60;99.90;;;;;;5029225;28;20044;-84
2023/12/25 07:55:38;;;;;;;10.85;2.85;;;9.60;99.90;;;;;;5017515;28;20052;-86
2023/12/25 07:58:04;;;;;;;13.15;2.40;;;9.50;99.90;;;;;;5029116;28;20576;-86
2023/12/25 08:00:30;;;;;;;11.20;2.30;;;9.60;99.90;;;;;;5021107;28;20037;-86
2023/12/25 08:02:55;;;;;;;9.82;2.60;;;9.60;99.90;;;;;;5012264;28;20040;-86
2023/12/25 08:05:21;;;;;;;12.25;2.13;;;9.60;99.90;;;;;;5017109;28;20447;-86
2023/12/25 08:07:47;;;;;;;10.73;2.38;;;9.60;99.90;;;;;;5012808;28;20052;-85
2023/12/25 08:10:16;;;;;;;13.57;2.58;;;9.70;99.90;;;;;;5014844;28;20626;-81
2023/12/25 08:12:43;;;;;;;11.20;2.60;;;9.70;99.90;;;;;;5016117;28;20444;-81
2023/12/25 08:15:15;;;;;;;12.07;2.42;;;9.70;99.90;;;;;;5023893;28;20400;-81
2023/12/25 08:17:42;;;;;;;13.75;3.70;;;9.70;99.90;;;;;;5007626;28;20430;-81
2023/12/25 08:20:29;;;;;;;8.32;2.25;;;9.60;99.90;;;;;;5047099;28;20072;-81
2023/12/25 08:23:07;;;;;;;14.50;3.38;;;9.60;99.90;;;;;;5022232;28;20143;-81
2023/12/25 08:25:33;;;;;;;13.80;2.42;;;9.60;99.90;;;;;;5023239;28;20140;-82
2023/12/25 08:27:59;;;;;;;12.95;2.45;;;9.60;99.90;;;;;;5057485;28;20124;-81
2023/12/25 08:30:24;;;;;;;9.30;2.50;;;9.60;99.90;;;;;;5038428;28;20452;-81
2023/12/25 08:32:50;;;;;;;16.50;2.67;;;9.60;99.90;;;;;;5019896;28;20033;-81
2023/12/25 08:35:15;;;;;;;7.72;1.92;;;9.60;99.90;;;;;;5032799;28;20488;-81
2023/12/25 08:37:41;;;;;;;11.95;2.60;;;9.50;99.90;;;;;;5034645;28;20039;-81
2023/12/25 08:40:07;;;;;;;10.45;2.15;;;9.50;99.90;;;;;;5020577;28;20045;-81
2023/12/25 08:42:33;;;;;;;18.05;2.95;;;9.50;99.90;;;;;;5019453;28;20316;-81
2023/12/25 08:44:59;;;;;;;15.27;2.70;;;9.50;99.90;;;;;;5014664;28;20164;-81
2023/12/25 08:47:26;;;;;;;13.32;2.60;;;9.50;99.90;;;;;;5031630;28;20128;-81
2023/12/25 08:49:52;;;;;;;12.27;2.50;;;9.50;99.90;;;;;;5028247;28;20045;-82
2023/12/25 08:52:18;;;;;;;10.52;2.40;;;9.50;99.90;;;;;;5035039;28;20040;-81
2023/12/25 08:54:45;;;;;;;12.13;2.45;;;9.50;99.90;;;;;;5031303;28;20056;-81
2023/12/25 08:57:11;;;;;;;16.15;2.38;;;9.50;99.90;;;;;;5018616;28;20311;-81
2023/12/25 08:59:37;;;;;;;10.88;2.75;;;9.50;99.90;;;;;;5019874;28;20423;-81
2023/12/25 09:02:03;;;;;;;10.93;2.45;;;9.50;99.90;;;;;;5012635;28;20119;-81
2023/12/25 09:04:28;;;;;;;9.10;2.67;;;9.50;99.90;;;;;;5017956;28;20108;-81
2023/12/25 09:06:54;;;;;;;11.52;2.72;;;9.50;99.90;;;;;;5029984;28;20251;-81
2023/12/25 09:09:21;;;;;;;13.50;2.67;;;9.40;99.90;;;;;;5029908;28;20133;-81
2023/12/25 09:11:47;;;;;;;15.23;2.97;;;9.50;99.90;;;;;;5022702;28;20519;-81
2023/12/25 09:14:13;;;;;;;12.82;2.97;;;9.40;99.90;;;;;;5018432;28;20036;-80
2023/12/25 09:16:39;;;;;;;14.63;3.20;;;9.40;99.90;;;;;;5020258;28;20041;-82
2023/12/25 09:19:04;;;;;;;13.70;2.80;;;9.40;99.90;;;;;;5027747;28;20486;-81
2023/12/25 09:21:37;;;;;;;15.25;3.08;;;9.40;99.90;;;;;;5013914;28;20045;-81
2023/12/25 09:24:03;;;;;;;10.93;2.67;;;9.40;99.90;;;;;;5019939;28;20036;-81
2023/12/25 09:26:29;;;;;;;11.00;2.70;;;9.40;99.90;;;;;;5016029;28;20718;-81
2023/12/25 09:28:55;;;;;;;8.65;2.40;;;9.40;99.90;;;;;;5035896;28;20037;-81
2023/12/25 09:31:20;;;;;;;9.25;2.50;;;9.30;99.90;;;;;;5023559;28;20037;-81
2023/12/25 09:33:46;;;;;;;15.32;2.92;;;9.30;99.90;;;;;;5016635;28;20480;-81
2023/12/25 09:36:12;;;;;;;6.53;2.00;;;9.30;99.90;;;;;;5030247;28;20041;-81
2023/12/25 09:38:37;;;;;;;14.13;2.33;;;9.30;99.90;;;;;;5018562;28;20037;-81
2023/12/25 09:41:14;;;;;;;6.20;1.60;;;9.30;99.90;;;;;;5018451;28;20033;-81
2023/12/25 09:43:43;;;;;;;12.30;2.05;;;9.30;99.90;;;;;;5025679;28;20049;-81
2023/12/25 09:46:14;;;;;;;13.95;2.42;;;9.20;99.90;;;;;;5015709;28;20370;-81
2023/12/25 09:48:40;;;;;;;8.70;2.22;;;9.20;99.90;;;;;;5030100;28;20045;-81
2023/12/25 09:51:07;;;;;;;8.65;2.08;;;9.30;99.90;;;;;;5032546;28;20051;-82
2023/12/25 09:53:33;;;;;;;9.48;2.25;;;9.30;99.90;;;;;;5016903;28;20306;-81
2023/12/25 09:56:00;;;;;;;15.27;2.28;;;9.30;99.90;;;;;;5014141;28;20558;-82
2023/12/25 09:58:27;;;;;;;11.63;1.92;;;9.30;99.90;;;;;;5012884;28;20087;-81
2023/12/25 10:00:57;;;;;;;9.93;1.85;;;9.30;99.90;;;;;;5031524;28;21050;-81
2023/12/25 10:03:26;;;;;;;7.45;1.98;;;9.30;99.90;;;;;;5009836;28;20038;-81
2023/12/25 10:05:52;;;;;;;13.68;2.33;;;9.30;99.90;;;;;;5015441;28;20043;-81
2023/12/25 10:08:19;;;;;;;12.07;2.50;;;9.30;99.90;;;;;;5031732;28;20073;-81
2023/12/25 10:10:46;;;;;;;11.20;2.30;;;9.30;99.90;;;;;;5030207;28;20421;-81
2023/12/25 10:13:13;;;;;;;9.80;2.30;;;9.30;99.90;;;;;;5028704;28;20133;-81
2023/12/25 10:15:40;;;;;;;10.68;2.50;;;9.30;99.90;;;;;;5009936;28;20037;-81
2023/12/25 10:18:07;;;;;;;9.45;2.17;;;9.40;99.90;;;;;;5012668;28;20515;-81
2023/12/25 10:20:33;;;;;;;8.55;2.20;;;9.40;99.90;;;;;;5011461;28;20126;-81
2023/12/25 10:23:00;;;;;;;12.63;2.72;;;9.40;99.90;;;;;;5014009;28;20044;-81
2023/12/25 10:25:29;;;;;;;9.30;2.22;;;9.40;99.90;;;;;;5017922;28;20045;-81
2023/12/25 10:27:55;;;;;;;13.23;2.60;;;9.40;99.90;;;;;;5009528;28;20436;-81
2023/12/25 10:30:27;;;;;;;11.15;2.55;;;9.40;99.90;;;;;;5026073;28;20041;-80
2023/12/25 10:33:14;;;;;;;14.45;2.60;;;9.40;99.90;;;;;;5013673;28;20064;-79
2023/12/25 10:35:43;;;;;;;13.13;2.58;;;9.50;99.90;;;;;;5032440;28;20180;-80
2023/12/25 10:38:09;;;;;;;14.02;2.40;;;9.50;99.90;;;;;;5029314;28;20037;-80
2023/12/25 10:40:36;;;;;;;14.60;3.10;;;9.50;99.90;;;;;;5015213;28;20419;-80
2023/12/25 10:43:02;;;;;;;14.95;2.45;;;9.50;99.90;;;;;;5029232;28;20515;-80
2023/12/25 10:45:30;;;;;;;15.90;2.33;;;9.60;99.90;;;;;;5025305;28;20046;-80
2023/12/25 10:47:58;;;;;;;12.65;2.95;;;9.50;99.90;;;;;;5025334;28;20292;-80
2023/12/25 10:50:26;;;;;;;14.38;2.60;;;9.60;99.90;;;;;;5017002;28;20036;-80
2023/12/25 10:52:57;;;;;;;14.30;2.67;;;9.60;99.90;;;;;;5029843;28;20053;-81
2023/12/25 10:55:41;;;;;;;9.98;2.10;;;9.60;99.90;;;;;;5012332;28;20047;-80
2023/12/25 10:58:10;;;;;;;11.57;2.60;;;9.60;99.90;;;;;;5030847;28;20036;-80
2023/12/25 11:00:39;;;;;;;10.35;2.50;;;9.70;99.90;;;;;;5010676;28;20048;-81
2023/12/25 11:03:05;;;;;;;13.32;2.60;;;9.60;99.90;;;;;;5027148;28;20789;-80
2023/12/25 11:05:31;;;;;;;12.27;2.75;;;9.70;99.90;;;;;;5029266;28;20496;-80
2023/12/25 11:08:00;;;;;;;14.98;2.63;;;9.70;99.90;;;;;;5013735;28;20091;-80
2023/12/25 11:10:29;;;;;;;10.68;2.33;;;9.70;99.90;;;;;;5016232;28;20394;-80
2023/12/25 11:12:56;;;;;;;13.32;2.65;;;9.70;99.90;;;;;;5012127;28;20045;-80
2023/12/25 11:15:23;;;;;;;12.77;2.45;;;9.70;99.90;;;;;;5013769;28;20256;-81
2023/12/25 11:17:49;;;;;;;12.65;2.63;;;9.70;99.90;;;;;;5030463;28;20628;-81
2023/12/25 11:20:15;;;;;;;8.65;2.67;;;9.60;99.90;;;;;;5012790;28;20040;-81
2023/12/25 11:22:44;;;;;;;16.40;2.22;;;9.60;99.90;;;;;;5029020;28;20045;-81
2023/12/25 11:25:15;;;;;;;11.90;2.47;;;9.70;99.90;;;;;;5027857;28;20045;-81
2023/12/25 11:28:02;;;;;;;17.30;3.22;;;9.70;99.90;;;;;;5014430;28;20099;-81
2023/12/25 11:30:34;;;;;;;11.23;2.65;;;9.70;99.90;;;;;;5011175;28;20998;-81
2023/12/25 11:33:01;;;;;;;18.85;3.55;;;9.70;99.90;;;;;;5010684;28;20033;-81
2023/12/25 11:35:28;;;;;;;16.38;2.80;;;9.70;99.90;;;;;;5027911;28;20654;-81
2023/12/25 11:38:19;;;;;;;13.38;4.00;;;9.70;99.90;;;;;;5029095;28;20185;-81
2023/12/25 11:40:51;;;;;;;14.68;3.20;;;9.70;99.90;;;;;;5030574;28;20045;-81
2023/12/25 11:43:23;;;;;;;12.20;2.40;;;9.80;99.90;;;;;;5032138;28;20128;-81
2023/12/25 11:45:54;;;;;;;17.45;3.45;;;9.80;99.90;;;;;;5013704;28;20193;-81
2023/12/25 11:48:37;;;;;;;16.77;3.17;;;9.80;99.90;;;;;;5026446;28;20116;-81
2023/12/25 11:51:23;;;;;;;16.15;3.22;;;9.80;99.90;;;;;;5014086;28;20043;-81
2023/12/25 11:53:52;;;;;;;9.95;3.35;;;9.70;99.90;;;;;;5033511;28;20152;-81
2023/12/25 11:56:18;;;;;;;13.38;3.10;;;9.70;99.90;;;;;;5034473;28;20037;-81
2023/12/25 11:58:45;;;;;;;15.02;2.88;;;9.80;99.90;;;;;;5015697;28;20307;-81
2023/12/25 12:01:17;;;;;;;15.40;2.83;;;9.90;99.90;;;;;;5017983;28;20529;-81
2023/12/25 12:03:49;;;;;;;16.70;2.67;;;9.80;99.90;;;;;;5032059;28;20081;-81
2023/12/25 12:06:17;;;;;;;10.57;3.10;;;9.80;99.90;;;;;;5034644;28;20566;-81
2023/12/25 12:08:44;;;;;;;15.82;3.22;;;9.90;99.90;;;;;;5033257;28;20053;-81
2023/12/25 12:11:14;;;;;;;15.32;2.92;;;9.90;99.90;;;;;;5014877;28;20103;-81
2023/12/25 12:13:40;;;;;;;11.75;3.10;;;9.90;99.90;;;;;;5035530;28;20234;-81
2023/12/25 12:16:07;;;;;;;14.18;3.00;;;9.80;99.90;;;;;;5014569;28;20071;-81
2023/12/25 12:18:32;;;;;;;14.90;3.38;;;9.80;99.90;;;;;;5030619;28;20049;-81
2023/12/25 12:20:58;;;;;;;14.60;3.20;;;9.90;99.90;;;;;;5018605;28;20394;-81
2023/12/25 12:23:28;;;;;;;14.68;2.90;;;9.90;99.90;;;;;;5027152;28;20048;-81
2023/12/25 12:25:54;;;;;;;16.33;3.10;;;9.80;99.90;;;;;;5021914;28;20044;-81
2023/12/25 12:28:20;;;;;;;14.32;3.45;;;9.80;99.90;;;;;;5033212;28;20045;-81
2023/12/25 12:30:46;;;;;;;12.63;2.60;;;9.80;99.90;;;;;;5028301;28;20053;-81
2023/12/25 12:33:12;;;;;;;11.88;2.83;;;9.80;99.90;;;;;;5014819;28;20413;-81
2023/12/25 12:35:39;;;;;;;12.95;3.60;;;9.80;99.90;;;;;;5029751;28;20049;-81
2023/12/25 12:38:05;;;;;;;8.50;3.03;;;9.90;99.90;;;;;;5011950;28;20080;-81
2023/12/25 12:40:32;;;;;;;18.15;3.40;;;10.10;99.90;;;;;;5019512;28;20119;-81
2023/12/25 12:42:58;;;;;;;16.90;3.30;;;10.30;99.90;;;;;;5018199;28;20048;-81